sensor_id;sensor_type;location;lat;lon;timestamp;temperature;humidity
28959;DHT22;16066;0.000;0.000;2022-08-01T00:01:33;22.90;67.40
28959;DHT22;16066;0.000;0.000;2022-08-01T00:03:59;22.90;67.30
28959;DHT22;16066;0.000;0.000;2022-08-01T00:06:24;23.00;67.50
28959;DHT22;16066;0.000;0.000;2022-08-01T00:08:50;22.90;67.60
28959;DHT22;16066;0.000;0.000;2022-08-01T00:11:15;22.90;67.60
28959;DHT22;16066;0.000;0.000;2022-08-01T00:13:41;22.90;67.80
28959;DHT22;16066;0.000;0.000;2022-08-01T00:16:07;22.90;67.80
28959;DHT22;16066;0.000;0.000;2022-08-01T00:18:32;22.80;67.70
28959;DHT22;16066;0.000;0.000;2022-08-01T00:20:58;22.80;67.80
28959;DHT22;16066;0.000;0.000;2022-08-01T00:23:23;22.80;67.90
28959;DHT22;16066;0.000;0.000;2022-08-01T00:25:49;22.80;67.90
28959;DHT22;16066;0.000;0.000;2022-08-01T00:28:14;22.70;68.00
28959;DHT22;16066;0.000;0.000;2022-08-01T00:30:41;22.70;67.90
28959;DHT22;16066;0.000;0.000;2022-08-01T00:33:06;22.70;68.00
28959;DHT22;16066;0.000;0.000;2022-08-01T00:35:32;22.70;68.00
28959;DHT22;16066;0.000;0.000;2022-08-01T00:37:58;22.70;68.10
28959;DHT22;16066;0.000;0.000;2022-08-01T00:40:23;22.70;68.20
28959;DHT22;16066;0.000;0.000;2022-08-01T00:42:49;22.70;68.10
28959;DHT22;16066;0.000;0.000;2022-08-01T00:45:14;22.70;68.20
28959;DHT22;16066;0.000;0.000;2022-08-01T00:47:40;22.70;68.00
28959;DHT22;16066;0.000;0.000;2022-08-01T00:50:06;22.70;68.20
28959;DHT22;16066;0.000;0.000;2022-08-01T00:52:32;22.70;68.00
28959;DHT22;16066;0.000;0.000;2022-08-01T00:54:58;22.70;68.10
28959;DHT22;16066;0.000;0.000;2022-08-01T00:57:24;22.70;68.00
28959;DHT22;16066;0.000;0.000;2022-08-01T00:59:51;22.70;68.00
28959;DHT22;16066;0.000;0.000;2022-08-01T01:02:17;22.60;68.00
28959;DHT22;16066;0.000;0.000;2022-08-01T01:04:43;22.60;68.10
28959;DHT22;16066;0.000;0.000;2022-08-01T01:10:46;22.60;68.20
28959;DHT22;16066;0.000;0.000;2022-08-01T01:13:20;22.60;68.30
28959;DHT22;16066;0.000;0.000;2022-08-01T01:15:58;22.60;68.30
28959;DHT22;16066;0.000;0.000;2022-08-01T01:24:13;22.50;68.50
28959;DHT22;16066;0.000;0.000;2022-08-01T01:26:55;22.50;68.60
28959;DHT22;16066;0.000;0.000;2022-08-01T01:29:35;22.50;68.30
28959;DHT22;16066;0.000;0.000;2022-08-01T01:32:09;22.50;68.40
28959;DHT22;16066;0.000;0.000;2022-08-01T01:34:38;22.50;68.60
28959;DHT22;16066;0.000;0.000;2022-08-01T01:37:09;22.50;68.60
28959;DHT22;16066;0.000;0.000;2022-08-01T01:39:36;22.50;68.50
28959;DHT22;16066;0.000;0.000;2022-08-01T01:42:05;22.50;68.50
28959;DHT22;16066;0.000;0.000;2022-08-01T01:44:32;22.50;68.80
28959;DHT22;16066;0.000;0.000;2022-08-01T01:46:59;22.40;68.60
28959;DHT22;16066;0.000;0.000;2022-08-01T01:49:27;22.40;68.60
28959;DHT22;16066;0.000;0.000;2022-08-01T01:51:55;22.40;68.70
28959;DHT22;16066;0.000;0.000;2022-08-01T01:54:28;22.50;68.70
28959;DHT22;16066;0.000;0.000;2022-08-01T01:56:56;22.40;68.60
28959;DHT22;16066;0.000;0.000;2022-08-01T01:59:25;22.40;68.60
28959;DHT22;16066;0.000;0.000;2022-08-01T02:01:55;22.40;68.70
28959;DHT22;16066;0.000;0.000;2022-08-01T02:04:23;22.40;68.70
28959;DHT22;16066;0.000;0.000;2022-08-01T02:06:50;22.40;68.90
28959;DHT22;16066;0.000;0.000;2022-08-01T02:09:18;22.40;69.00
28959;DHT22;16066;0.000;0.000;2022-08-01T02:11:46;22.30;69.00
28959;DHT22;16066;0.000;0.000;2022-08-01T02:14:13;22.30;69.10
28959;DHT22;16066;0.000;0.000;2022-08-01T02:16:41;22.30;69.00
28959;DHT22;16066;0.000;0.000;2022-08-01T02:19:08;22.30;69.10
28959;DHT22;16066;0.000;0.000;2022-08-01T02:21:54;22.30;69.00
28959;DHT22;16066;0.000;0.000;2022-08-01T02:24:27;22.30;69.00
28959;DHT22;16066;0.000;0.000;2022-08-01T02:26:59;22.30;69.10
28959;DHT22;16066;0.000;0.000;2022-08-01T02:29:29;22.30;69.00
28959;DHT22;16066;0.000;0.000;2022-08-01T02:31:58;22.30;69.00
28959;DHT22;16066;0.000;0.000;2022-08-01T02:34:28;22.30;68.80
28959;DHT22;16066;0.000;0.000;2022-08-01T02:36:59;22.30;69.00
28959;DHT22;16066;0.000;0.000;2022-08-01T02:39:27;22.30;68.90
28959;DHT22;16066;0.000;0.000;2022-08-01T02:41:57;22.30;68.70
28959;DHT22;16066;0.000;0.000;2022-08-01T02:44:32;22.30;68.70
28959;DHT22;16066;0.000;0.000;2022-08-01T02:47:01;22.30;68.60
28959;DHT22;16066;0.000;0.000;2022-08-01T02:49:50;22.30;68.60
28959;DHT22;16066;0.000;0.000;2022-08-01T02:52:18;22.30;68.60
28959;DHT22;16066;0.000;0.000;2022-08-01T02:54:45;22.30;68.70
28959;DHT22;16066;0.000;0.000;2022-08-01T02:57:12;22.30;68.80
28959;DHT22;16066;0.000;0.000;2022-08-01T02:59:39;22.30;68.90
28959;DHT22;16066;0.000;0.000;2022-08-01T03:02:07;22.20;69.60
28959;DHT22;16066;0.000;0.000;2022-08-01T03:04:34;22.20;68.80
28959;DHT22;16066;0.000;0.000;2022-08-01T03:07:03;22.20;68.80
28959;DHT22;16066;0.000;0.000;2022-08-01T03:09:30;22.20;68.80
28959;DHT22;16066;0.000;0.000;2022-08-01T03:12:00;22.20;68.90
28959;DHT22;16066;0.000;0.000;2022-08-01T03:14:29;22.20;68.90
28959;DHT22;16066;0.000;0.000;2022-08-01T03:16:56;22.20;69.00
28959;DHT22;16066;0.000;0.000;2022-08-01T03:19:24;22.20;69.00
28959;DHT22;16066;0.000;0.000;2022-08-01T03:21:52;22.20;69.00
28959;DHT22;16066;0.000;0.000;2022-08-01T03:24:18;22.20;68.90
28959;DHT22;16066;0.000;0.000;2022-08-01T03:26:44;22.20;68.90
28959;DHT22;16066;0.000;0.000;2022-08-01T03:29:18;22.20;68.80
28959;DHT22;16066;0.000;0.000;2022-08-01T03:31:46;22.20;69.00
28959;DHT22;16066;0.000;0.000;2022-08-01T03:34:13;22.20;69.00
28959;DHT22;16066;0.000;0.000;2022-08-01T03:36:46;22.20;69.20
28959;DHT22;16066;0.000;0.000;2022-08-01T03:39:14;22.20;69.20
28959;DHT22;16066;0.000;0.000;2022-08-01T03:41:44;22.20;69.10
28959;DHT22;16066;0.000;0.000;2022-08-01T03:44:18;22.10;69.10
28959;DHT22;16066;0.000;0.000;2022-08-01T03:46:48;22.10;69.30
28959;DHT22;16066;0.000;0.000;2022-08-01T03:49:26;22.10;69.30
28959;DHT22;16066;0.000;0.000;2022-08-01T03:51:54;22.20;69.20
28959;DHT22;16066;0.000;0.000;2022-08-01T03:54:23;22.20;69.30
28959;DHT22;16066;0.000;0.000;2022-08-01T03:56:50;22.20;69.10
28959;DHT22;16066;0.000;0.000;2022-08-01T03:59:17;22.20;69.10
28959;DHT22;16066;0.000;0.000;2022-08-01T04:01:45;22.20;69.10
28959;DHT22;16066;0.000;0.000;2022-08-01T04:04:12;22.20;69.10
28959;DHT22;16066;0.000;0.000;2022-08-01T04:06:38;22.20;69.10
28959;DHT22;16066;0.000;0.000;2022-08-01T04:09:06;22.20;69.20
28959;DHT22;16066;0.000;0.000;2022-08-01T04:11:32;22.20;69.30
28959;DHT22;16066;0.000;0.000;2022-08-01T04:13:58;22.20;69.30
28959;DHT22;16066;0.000;0.000;2022-08-01T04:16:24;22.20;69.50
28959;DHT22;16066;0.000;0.000;2022-08-01T04:18:51;22.20;69.60
28959;DHT22;16066;0.000;0.000;2022-08-01T04:21:22;22.20;69.60
28959;DHT22;16066;0.000;0.000;2022-08-01T04:23:49;22.20;69.60
28959;DHT22;16066;0.000;0.000;2022-08-01T04:26:18;22.10;69.30
28959;DHT22;16066;0.000;0.000;2022-08-01T04:28:46;22.10;69.50
28959;DHT22;16066;0.000;0.000;2022-08-01T04:31:14;22.10;69.50
28959;DHT22;16066;0.000;0.000;2022-08-01T04:33:44;22.10;69.70
28959;DHT22;16066;0.000;0.000;2022-08-01T04:36:12;22.10;69.80
28959;DHT22;16066;0.000;0.000;2022-08-01T04:38:41;22.10;69.70
28959;DHT22;16066;0.000;0.000;2022-08-01T04:41:10;22.10;69.70
28959;DHT22;16066;0.000;0.000;2022-08-01T04:43:37;22.10;69.80
28959;DHT22;16066;0.000;0.000;2022-08-01T04:46:03;22.20;69.80
28959;DHT22;16066;0.000;0.000;2022-08-01T04:48:29;22.10;69.90
28959;DHT22;16066;0.000;0.000;2022-08-01T04:50:56;22.10;69.70
28959;DHT22;16066;0.000;0.000;2022-08-01T04:53:23;22.10;69.80
28959;DHT22;16066;0.000;0.000;2022-08-01T04:55:48;22.10;69.80
28959;DHT22;16066;0.000;0.000;2022-08-01T04:58:15;22.10;69.70
28959;DHT22;16066;0.000;0.000;2022-08-01T05:00:41;22.10;70.30
28959;DHT22;16066;0.000;0.000;2022-08-01T05:03:07;22.10;69.50
28959;DHT22;16066;0.000;0.000;2022-08-01T05:05:33;22.20;69.50
28959;DHT22;16066;0.000;0.000;2022-08-01T05:07:59;22.20;69.60
28959;DHT22;16066;0.000;0.000;2022-08-01T05:10:26;22.20;69.50
28959;DHT22;16066;0.000;0.000;2022-08-01T05:12:52;22.20;69.60
28959;DHT22;16066;0.000;0.000;2022-08-01T05:15:17;22.20;69.60
28959;DHT22;16066;0.000;0.000;2022-08-01T05:17:43;22.20;69.70
28959;DHT22;16066;0.000;0.000;2022-08-01T05:20:10;22.20;69.60
28959;DHT22;16066;0.000;0.000;2022-08-01T05:22:37;22.30;69.50
28959;DHT22;16066;0.000;0.000;2022-08-01T05:25:04;22.30;69.50
28959;DHT22;16066;0.000;0.000;2022-08-01T05:27:33;22.30;69.40
28959;DHT22;16066;0.000;0.000;2022-08-01T05:30:04;22.30;69.40
28959;DHT22;16066;0.000;0.000;2022-08-01T05:32:30;22.30;69.40
28959;DHT22;16066;0.000;0.000;2022-08-01T05:34:57;22.30;69.20
28959;DHT22;16066;0.000;0.000;2022-08-01T05:37:23;22.30;69.60
28959;DHT22;16066;0.000;0.000;2022-08-01T05:39:48;22.40;69.30
28959;DHT22;16066;0.000;0.000;2022-08-01T05:42:14;22.30;69.10
28959;DHT22;16066;0.000;0.000;2022-08-01T05:44:40;22.30;69.10
28959;DHT22;16066;0.000;0.000;2022-08-01T05:47:05;22.30;69.40
28959;DHT22;16066;0.000;0.000;2022-08-01T05:49:31;22.30;69.20
28959;DHT22;16066;0.000;0.000;2022-08-01T05:51:57;22.30;69.30
28959;DHT22;16066;0.000;0.000;2022-08-01T05:54:23;22.30;69.40
28959;DHT22;16066;0.000;0.000;2022-08-01T05:56:49;22.30;69.30
28959;DHT22;16066;0.000;0.000;2022-08-01T05:59:15;22.30;69.10
28959;DHT22;16066;0.000;0.000;2022-08-01T06:01:41;22.40;69.10
28959;DHT22;16066;0.000;0.000;2022-08-01T06:04:06;22.40;69.00
28959;DHT22;16066;0.000;0.000;2022-08-01T06:06:32;22.40;69.00
28959;DHT22;16066;0.000;0.000;2022-08-01T06:08:58;22.40;69.00
28959;DHT22;16066;0.000;0.000;2022-08-01T06:11:24;22.40;68.90
28959;DHT22;16066;0.000;0.000;2022-08-01T06:13:49;22.40;68.90
28959;DHT22;16066;0.000;0.000;2022-08-01T06:16:16;22.40;68.80
28959;DHT22;16066;0.000;0.000;2022-08-01T06:18:41;22.40;68.90
28959;DHT22;16066;0.000;0.000;2022-08-01T06:21:07;22.40;68.90
28959;DHT22;16066;0.000;0.000;2022-08-01T06:23:33;22.40;68.70
28959;DHT22;16066;0.000;0.000;2022-08-01T06:25:59;22.50;68.70
28959;DHT22;16066;0.000;0.000;2022-08-01T06:28:25;22.50;68.70
28959;DHT22;16066;0.000;0.000;2022-08-01T06:30:50;22.50;68.70
28959;DHT22;16066;0.000;0.000;2022-08-01T06:33:16;22.50;68.60
28959;DHT22;16066;0.000;0.000;2022-08-01T06:35:42;22.50;68.50
28959;DHT22;16066;0.000;0.000;2022-08-01T06:38:08;22.50;68.40
28959;DHT22;16066;0.000;0.000;2022-08-01T06:40:33;22.50;68.30
28959;DHT22;16066;0.000;0.000;2022-08-01T06:42:59;22.50;68.30
28959;DHT22;16066;0.000;0.000;2022-08-01T06:45:25;22.50;68.20
28959;DHT22;16066;0.000;0.000;2022-08-01T06:47:52;22.50;68.10
28959;DHT22;16066;0.000;0.000;2022-08-01T06:50:18;22.60;68.00
28959;DHT22;16066;0.000;0.000;2022-08-01T06:52:44;22.60;67.90
28959;DHT22;16066;0.000;0.000;2022-08-01T06:55:10;22.60;67.60
28959;DHT22;16066;0.000;0.000;2022-08-01T06:57:36;22.60;67.70
28959;DHT22;16066;0.000;0.000;2022-08-01T07:00:06;22.70;67.60
28959;DHT22;16066;0.000;0.000;2022-08-01T07:02:37;22.70;67.50
28959;DHT22;16066;0.000;0.000;2022-08-01T07:05:03;22.70;67.40
28959;DHT22;16066;0.000;0.000;2022-08-01T07:07:30;22.70;67.10
28959;DHT22;16066;0.000;0.000;2022-08-01T07:09:56;22.70;67.10
28959;DHT22;16066;0.000;0.000;2022-08-01T07:12:21;22.70;67.40
28959;DHT22;16066;0.000;0.000;2022-08-01T07:14:47;22.70;67.20
28959;DHT22;16066;0.000;0.000;2022-08-01T07:17:13;22.70;67.10
28959;DHT22;16066;0.000;0.000;2022-08-01T07:19:38;22.70;67.00
28959;DHT22;16066;0.000;0.000;2022-08-01T07:22:04;22.70;66.70
28959;DHT22;16066;0.000;0.000;2022-08-01T07:24:29;22.70;66.70
28959;DHT22;16066;0.000;0.000;2022-08-01T07:26:55;22.70;66.40
28959;DHT22;16066;0.000;0.000;2022-08-01T07:29:24;22.70;66.40
28959;DHT22;16066;0.000;0.000;2022-08-01T07:31:53;22.70;66.40
28959;DHT22;16066;0.000;0.000;2022-08-01T07:34:19;22.70;66.40
28959;DHT22;16066;0.000;0.000;2022-08-01T07:36:45;22.70;66.00
28959;DHT22;16066;0.000;0.000;2022-08-01T07:39:10;22.80;66.30
28959;DHT22;16066;0.000;0.000;2022-08-01T07:41:36;22.70;66.20
28959;DHT22;16066;0.000;0.000;2022-08-01T07:44:02;22.80;66.10
28959;DHT22;16066;0.000;0.000;2022-08-01T07:46:27;22.80;66.10
28959;DHT22;16066;0.000;0.000;2022-08-01T07:48:54;22.80;65.90
28959;DHT22;16066;0.000;0.000;2022-08-01T07:51:20;22.90;66.00
28959;DHT22;16066;0.000;0.000;2022-08-01T07:53:45;22.90;65.80
28959;DHT22;16066;0.000;0.000;2022-08-01T07:56:11;22.90;65.70
28959;DHT22;16066;0.000;0.000;2022-08-01T07:58:36;22.90;65.30
28959;DHT22;16066;0.000;0.000;2022-08-01T08:01:02;22.90;65.20
28959;DHT22;16066;0.000;0.000;2022-08-01T08:03:28;22.90;64.70
28959;DHT22;16066;0.000;0.000;2022-08-01T08:05:53;23.00;64.40
28959;DHT22;16066;0.000;0.000;2022-08-01T08:08:19;23.00;64.00
28959;DHT22;16066;0.000;0.000;2022-08-01T08:10:44;23.00;63.70
28959;DHT22;16066;0.000;0.000;2022-08-01T08:13:10;23.00;63.70
28959;DHT22;16066;0.000;0.000;2022-08-01T08:15:35;23.10;63.70
28959;DHT22;16066;0.000;0.000;2022-08-01T08:18:03;23.00;63.40
28959;DHT22;16066;0.000;0.000;2022-08-01T08:20:28;23.10;63.50
28959;DHT22;16066;0.000;0.000;2022-08-01T08:22:55;23.10;63.60
28959;DHT22;16066;0.000;0.000;2022-08-01T08:25:21;23.10;63.50
28959;DHT22;16066;0.000;0.000;2022-08-01T08:27:49;23.10;63.30
28959;DHT22;16066;0.000;0.000;2022-08-01T08:30:15;23.10;63.30
28959;DHT22;16066;0.000;0.000;2022-08-01T08:32:41;23.10;63.20
28959;DHT22;16066;0.000;0.000;2022-08-01T08:35:07;23.20;63.20
28959;DHT22;16066;0.000;0.000;2022-08-01T08:37:34;23.20;63.20
28959;DHT22;16066;0.000;0.000;2022-08-01T08:40:00;23.20;63.90
28959;DHT22;16066;0.000;0.000;2022-08-01T08:42:26;23.20;62.80
28959;DHT22;16066;0.000;0.000;2022-08-01T08:44:52;23.10;62.40
28959;DHT22;16066;0.000;0.000;2022-08-01T08:47:19;23.20;62.60
28959;DHT22;16066;0.000;0.000;2022-08-01T08:49:47;23.10;62.60
28959;DHT22;16066;0.000;0.000;2022-08-01T08:52:14;23.20;62.50
28959;DHT22;16066;0.000;0.000;2022-08-01T08:54:41;23.20;63.20
28959;DHT22;16066;0.000;0.000;2022-08-01T08:57:07;23.20;62.30
28959;DHT22;16066;0.000;0.000;2022-08-01T08:59:33;23.20;62.30
28959;DHT22;16066;0.000;0.000;2022-08-01T09:01:58;23.30;62.20
28959;DHT22;16066;0.000;0.000;2022-08-01T09:04:25;23.30;61.70
28959;DHT22;16066;0.000;0.000;2022-08-01T09:06:53;23.30;61.50
28959;DHT22;16066;0.000;0.000;2022-08-01T09:09:18;23.40;61.40
28959;DHT22;16066;0.000;0.000;2022-08-01T09:11:44;23.40;61.50
28959;DHT22;16066;0.000;0.000;2022-08-01T09:14:12;23.40;61.60
28959;DHT22;16066;0.000;0.000;2022-08-01T09:16:43;23.40;61.40
28959;DHT22;16066;0.000;0.000;2022-08-01T09:19:14;23.40;61.40
28959;DHT22;16066;0.000;0.000;2022-08-01T09:22:01;23.40;61.50
28959;DHT22;16066;0.000;0.000;2022-08-01T09:24:28;23.40;61.60
28959;DHT22;16066;0.000;0.000;2022-08-01T09:26:54;23.30;61.80
28959;DHT22;16066;0.000;0.000;2022-08-01T09:29:22;23.30;62.00
28959;DHT22;16066;0.000;0.000;2022-08-01T09:31:48;23.30;62.70
28959;DHT22;16066;0.000;0.000;2022-08-01T09:34:16;23.30;62.10
28959;DHT22;16066;0.000;0.000;2022-08-01T09:36:50;23.30;61.90
28959;DHT22;16066;0.000;0.000;2022-08-01T09:39:23;23.30;61.70
28959;DHT22;16066;0.000;0.000;2022-08-01T09:41:48;23.30;61.60
28959;DHT22;16066;0.000;0.000;2022-08-01T09:44:15;23.30;61.40
28959;DHT22;16066;0.000;0.000;2022-08-01T09:46:54;23.30;61.30
28959;DHT22;16066;0.000;0.000;2022-08-01T09:49:34;23.30;61.20
28959;DHT22;16066;0.000;0.000;2022-08-01T09:52:14;23.40;61.30
28959;DHT22;16066;0.000;0.000;2022-08-01T09:54:41;23.40;61.30
28959;DHT22;16066;0.000;0.000;2022-08-01T09:57:09;23.40;61.30
28959;DHT22;16066;0.000;0.000;2022-08-01T09:59:40;23.50;61.10
28959;DHT22;16066;0.000;0.000;2022-08-01T10:02:10;23.50;60.80
28959;DHT22;16066;0.000;0.000;2022-08-01T10:04:46;23.50;60.40
28959;DHT22;16066;0.000;0.000;2022-08-01T10:07:12;23.60;60.10
28959;DHT22;16066;0.000;0.000;2022-08-01T10:09:41;23.60;59.70
28959;DHT22;16066;0.000;0.000;2022-08-01T10:12:07;23.60;59.70
28959;DHT22;16066;0.000;0.000;2022-08-01T10:14:33;23.60;59.50
28959;DHT22;16066;0.000;0.000;2022-08-01T10:17:00;23.70;59.50
28959;DHT22;16066;0.000;0.000;2022-08-01T10:19:28;23.70;59.40
28959;DHT22;16066;0.000;0.000;2022-08-01T10:21:55;23.70;59.40
28959;DHT22;16066;0.000;0.000;2022-08-01T10:24:21;23.70;59.50
28959;DHT22;16066;0.000;0.000;2022-08-01T10:27:08;23.80;59.50
28959;DHT22;16066;0.000;0.000;2022-08-01T10:32:13;23.80;59.30
28959;DHT22;16066;0.000;0.000;2022-08-01T10:34:40;23.80;59.20
28959;DHT22;16066;0.000;0.000;2022-08-01T10:37:05;23.80;59.20
28959;DHT22;16066;0.000;0.000;2022-08-01T10:39:33;23.90;59.10
28959;DHT22;16066;0.000;0.000;2022-08-01T10:42:00;23.90;58.90
28959;DHT22;16066;0.000;0.000;2022-08-01T10:44:27;23.90;58.90
28959;DHT22;16066;0.000;0.000;2022-08-01T10:47:10;23.90;58.70
28959;DHT22;16066;0.000;0.000;2022-08-01T10:49:48;24.00;58.40
28959;DHT22;16066;0.000;0.000;2022-08-01T10:52:17;24.00;58.00
28959;DHT22;16066;0.000;0.000;2022-08-01T10:54:43;24.00;57.90
28959;DHT22;16066;0.000;0.000;2022-08-01T10:57:09;24.10;58.00
28959;DHT22;16066;0.000;0.000;2022-08-01T10:59:36;24.10;57.90
28959;DHT22;16066;0.000;0.000;2022-08-01T11:02:26;24.10;57.80
28959;DHT22;16066;0.000;0.000;2022-08-01T11:05:23;24.10;57.40
28959;DHT22;16066;0.000;0.000;2022-08-01T11:07:52;24.10;57.40
28959;DHT22;16066;0.000;0.000;2022-08-01T11:10:50;24.10;57.50
28959;DHT22;16066;0.000;0.000;2022-08-01T11:14:00;24.10;57.50
28959;DHT22;16066;0.000;0.000;2022-08-01T11:16:31;24.10;57.30
28959;DHT22;16066;0.000;0.000;2022-08-01T11:18:57;24.10;57.20
28959;DHT22;16066;0.000;0.000;2022-08-01T11:21:27;24.10;57.30
28959;DHT22;16066;0.000;0.000;2022-08-01T11:24:08;24.10;57.20
28959;DHT22;16066;0.000;0.000;2022-08-01T11:26:33;24.10;56.60
28959;DHT22;16066;0.000;0.000;2022-08-01T11:29:17;24.10;56.60
28959;DHT22;16066;0.000;0.000;2022-08-01T11:31:43;24.10;56.70
28959;DHT22;16066;0.000;0.000;2022-08-01T11:34:09;24.20;56.50
28959;DHT22;16066;0.000;0.000;2022-08-01T11:36:34;24.20;56.40
28959;DHT22;16066;0.000;0.000;2022-08-01T11:41:27;24.30;55.50
28959;DHT22;16066;0.000;0.000;2022-08-01T11:52:09;24.30;55.20
28959;DHT22;16066;0.000;0.000;2022-08-01T11:57:07;24.30;55.10
28959;DHT22;16066;0.000;0.000;2022-08-01T11:59:44;24.40;54.90
28959;DHT22;16066;0.000;0.000;2022-08-01T12:02:33;24.40;54.50
28959;DHT22;16066;0.000;0.000;2022-08-01T12:05:10;24.40;54.30
28959;DHT22;16066;0.000;0.000;2022-08-01T12:07:40;24.40;54.30
28959;DHT22;16066;0.000;0.000;2022-08-01T12:10:14;24.50;54.30
28959;DHT22;16066;0.000;0.000;2022-08-01T12:12:51;24.50;53.90
28959;DHT22;16066;0.000;0.000;2022-08-01T12:15:19;24.60;53.80
28959;DHT22;16066;0.000;0.000;2022-08-01T12:18:05;24.50;53.00
28959;DHT22;16066;0.000;0.000;2022-08-01T12:20:37;24.60;52.90
28959;DHT22;16066;0.000;0.000;2022-08-01T12:23:05;24.60;53.20
28959;DHT22;16066;0.000;0.000;2022-08-01T12:25:31;24.60;53.10
28959;DHT22;16066;0.000;0.000;2022-08-01T12:28:10;24.60;53.50
28959;DHT22;16066;0.000;0.000;2022-08-01T12:30:38;24.60;54.00
28959;DHT22;16066;0.000;0.000;2022-08-01T12:33:06;24.60;54.20
28959;DHT22;16066;0.000;0.000;2022-08-01T12:35:33;24.60;54.50
28959;DHT22;16066;0.000;0.000;2022-08-01T12:38:04;24.60;55.10
28959;DHT22;16066;0.000;0.000;2022-08-01T12:40:32;24.60;55.60
28959;DHT22;16066;0.000;0.000;2022-08-01T12:43:04;24.60;55.90
28959;DHT22;16066;0.000;0.000;2022-08-01T12:45:39;24.60;56.30
28959;DHT22;16066;0.000;0.000;2022-08-01T12:48:09;24.60;56.20
28959;DHT22;16066;0.000;0.000;2022-08-01T12:50:37;24.60;56.10
28959;DHT22;16066;0.000;0.000;2022-08-01T12:53:03;24.60;56.20
28959;DHT22;16066;0.000;0.000;2022-08-01T12:55:29;24.60;56.20
28959;DHT22;16066;0.000;0.000;2022-08-01T12:58:06;24.60;56.10
28959;DHT22;16066;0.000;0.000;2022-08-01T13:00:33;24.60;56.20
28959;DHT22;16066;0.000;0.000;2022-08-01T13:03:04;24.60;56.20
28959;DHT22;16066;0.000;0.000;2022-08-01T13:06:13;24.70;55.90
28959;DHT22;16066;0.000;0.000;2022-08-01T13:08:39;24.70;55.40
28959;DHT22;16066;0.000;0.000;2022-08-01T13:11:10;24.70;55.10
28959;DHT22;16066;0.000;0.000;2022-08-01T13:13:57;24.80;55.10
28959;DHT22;16066;0.000;0.000;2022-08-01T13:16:25;24.80;55.20
28959;DHT22;16066;0.000;0.000;2022-08-01T13:18:52;24.80;55.10
28959;DHT22;16066;0.000;0.000;2022-08-01T13:21:23;24.80;55.00
28959;DHT22;16066;0.000;0.000;2022-08-01T13:24:08;24.80;55.00
28959;DHT22;16066;0.000;0.000;2022-08-01T13:26:46;24.80;54.70
28959;DHT22;16066;0.000;0.000;2022-08-01T13:29:14;24.80;54.60
28959;DHT22;16066;0.000;0.000;2022-08-01T13:31:40;24.80;54.60
28959;DHT22;16066;0.000;0.000;2022-08-01T13:34:07;24.80;54.60
28959;DHT22;16066;0.000;0.000;2022-08-01T13:36:33;24.90;54.50
28959;DHT22;16066;0.000;0.000;2022-08-01T13:38:59;25.00;54.50
28959;DHT22;16066;0.000;0.000;2022-08-01T13:41:44;25.00;54.30
28959;DHT22;16066;0.000;0.000;2022-08-01T13:44:10;25.10;54.10
28959;DHT22;16066;0.000;0.000;2022-08-01T13:46:37;25.10;54.10
28959;DHT22;16066;0.000;0.000;2022-08-01T13:49:04;25.00;54.00
28959;DHT22;16066;0.000;0.000;2022-08-01T13:51:30;25.10;54.00
28959;DHT22;16066;0.000;0.000;2022-08-01T13:53:55;25.10;53.70
28959;DHT22;16066;0.000;0.000;2022-08-01T13:56:21;25.20;53.80
28959;DHT22;16066;0.000;0.000;2022-08-01T13:58:47;25.30;53.50
28959;DHT22;16066;0.000;0.000;2022-08-01T14:01:13;25.30;53.20
28959;DHT22;16066;0.000;0.000;2022-08-01T14:03:38;25.20;53.30
28959;DHT22;16066;0.000;0.000;2022-08-01T14:06:04;25.20;53.40
28959;DHT22;16066;0.000;0.000;2022-08-01T14:08:30;25.20;53.40
28959;DHT22;16066;0.000;0.000;2022-08-01T14:10:55;25.20;53.40
28959;DHT22;16066;0.000;0.000;2022-08-01T14:13:27;25.10;53.40
28959;DHT22;16066;0.000;0.000;2022-08-01T14:15:53;25.00;53.50
28959;DHT22;16066;0.000;0.000;2022-08-01T14:18:18;25.00;53.70
28959;DHT22;16066;0.000;0.000;2022-08-01T14:20:44;24.90;53.90
28959;DHT22;16066;0.000;0.000;2022-08-01T14:23:10;24.90;54.00
28959;DHT22;16066;0.000;0.000;2022-08-01T14:25:37;24.90;54.10
28959;DHT22;16066;0.000;0.000;2022-08-01T14:28:03;24.90;54.20
28959;DHT22;16066;0.000;0.000;2022-08-01T14:30:29;24.90;54.50
28959;DHT22;16066;0.000;0.000;2022-08-01T14:32:54;24.90;54.70
28959;DHT22;16066;0.000;0.000;2022-08-01T14:35:20;25.00;54.70
28959;DHT22;16066;0.000;0.000;2022-08-01T14:37:45;25.10;54.60
28959;DHT22;16066;0.000;0.000;2022-08-01T14:40:11;25.10;54.50
28959;DHT22;16066;0.000;0.000;2022-08-01T14:42:38;25.10;54.50
28959;DHT22;16066;0.000;0.000;2022-08-01T14:45:05;25.20;54.40
28959;DHT22;16066;0.000;0.000;2022-08-01T14:47:35;25.40;54.10
28959;DHT22;16066;0.000;0.000;2022-08-01T14:50:02;25.50;53.60
28959;DHT22;16066;0.000;0.000;2022-08-01T14:52:27;25.70;53.30
28959;DHT22;16066;0.000;0.000;2022-08-01T14:54:53;25.80;52.90
28959;DHT22;16066;0.000;0.000;2022-08-01T14:57:18;25.90;52.30
28959;DHT22;16066;0.000;0.000;2022-08-01T14:59:44;25.90;51.90
28959;DHT22;16066;0.000;0.000;2022-08-01T15:02:10;26.10;51.80
28959;DHT22;16066;0.000;0.000;2022-08-01T15:04:36;26.10;51.90
28959;DHT22;16066;0.000;0.000;2022-08-01T15:07:02;26.00;52.30
28959;DHT22;16066;0.000;0.000;2022-08-01T15:09:27;26.00;51.80
28959;DHT22;16066;0.000;0.000;2022-08-01T15:11:53;26.00;51.80
28959;DHT22;16066;0.000;0.000;2022-08-01T15:14:18;25.90;52.00
28959;DHT22;16066;0.000;0.000;2022-08-01T15:17:03;25.80;52.10
28959;DHT22;16066;0.000;0.000;2022-08-01T15:19:28;25.80;52.30
28959;DHT22;16066;0.000;0.000;2022-08-01T15:21:54;25.70;52.40
28959;DHT22;16066;0.000;0.000;2022-08-01T15:24:19;25.70;52.50
28959;DHT22;16066;0.000;0.000;2022-08-01T15:26:45;25.60;52.80
28959;DHT22;16066;0.000;0.000;2022-08-01T15:29:10;25.60;52.90
28959;DHT22;16066;0.000;0.000;2022-08-01T15:31:38;25.60;53.00
28959;DHT22;16066;0.000;0.000;2022-08-01T15:34:04;25.60;53.10
28959;DHT22;16066;0.000;0.000;2022-08-01T15:36:29;25.70;52.90
28959;DHT22;16066;0.000;0.000;2022-08-01T15:38:55;25.80;52.00
28959;DHT22;16066;0.000;0.000;2022-08-01T15:41:20;25.80;52.00
28959;DHT22;16066;0.000;0.000;2022-08-01T15:43:46;25.70;52.30
28959;DHT22;16066;0.000;0.000;2022-08-01T15:46:11;25.50;52.60
28959;DHT22;16066;0.000;0.000;2022-08-01T15:48:37;25.40;53.10
28959;DHT22;16066;0.000;0.000;2022-08-01T15:51:02;25.30;53.40
28959;DHT22;16066;0.000;0.000;2022-08-01T15:53:28;25.30;53.40
28959;DHT22;16066;0.000;0.000;2022-08-01T15:55:54;25.40;52.90
28959;DHT22;16066;0.000;0.000;2022-08-01T15:58:19;25.70;52.50
28959;DHT22;16066;0.000;0.000;2022-08-01T16:00:45;25.80;52.10
28959;DHT22;16066;0.000;0.000;2022-08-01T16:03:10;25.90;51.80
28959;DHT22;16066;0.000;0.000;2022-08-01T16:05:36;25.80;51.90
28959;DHT22;16066;0.000;0.000;2022-08-01T16:08:02;25.70;52.20
28959;DHT22;16066;0.000;0.000;2022-08-01T16:10:29;25.60;52.40
28959;DHT22;16066;0.000;0.000;2022-08-01T16:12:55;25.50;52.70
28959;DHT22;16066;0.000;0.000;2022-08-01T16:15:20;25.30;53.00
28959;DHT22;16066;0.000;0.000;2022-08-01T16:17:46;25.20;53.10